Sacramento, CA

6:38 PM PDT on April 26, 2015 (GMT -0700)
APRSWXNET | | Change Station
CLOSE
Current Station
Personal Weather Station
Location: Sacramento, CA
Elevation: 18 ft
Nearby Weather Stations

Elev 18 ft 38.57 °N, 121.48 °W | Updated 54 minutes ago

Clear
Clear
77 °F
Feels Like 78 °F
N
1
Wind Variable Wind from NNW
Gusts 0.0 mph

Today
High -- | Low -- °F
--% Chance of Precip.
Yesterday
High -- | Low -- °F
Precip. -- in
6:15 AM 7:53 PM
First Quarter, 60% visible
Pressure 30.02 in
Visibility 10.0 miles
Clouds Clear
Heat Index 78 °F
Dew Point 42 °F
Humidity 29%
Rainfall in
Snow Depth Not available.
UV 2 out of 12
Pollen 8.40 out of 12
Air Quality Not available.
Flu Activity Sporadic
METAR KSAC 270053Z AUTO 36011KT 10SM CLR 26/03 A3002 RMK AO2 SLP164 T02610033 TSNO

More Conditions Fewer Conditions

Pressure 30.02 in
Visibility 10.0 miles
Clouds Clear
Heat Index 78 °F
Dew Point 42 °F
Humidity 29%
Rainfall in
Snow Depth Not available.
UV 2 out of 12
Pollen 8.40 out of 12
Air Quality Not available.
Flu Activity Sporadic
METAR KSAC 270053Z AUTO 36011KT 10SM CLR 26/03 A3002 RMK AO2 SLP164 T02610033 TSNO

More Conditions Fewer Conditions

The full scope of the disaster following a powerful 7.8-magnitude earthquake in Nepal may not come into view for days, but global charities are already sending emergency aid. Click to see how you can help.

10-Day Weather Forecast

Almanac

Astronomy

Apr. 26, 2015 Rise Set
Actual Time
Civil Twilight
Nautical Twilight
Astronomical Twilight
Moon
Length of Visible Light
Length of Day
Tomorrow will be .
, % of the Moon is Illuminated

Today's Extremes

State Highs State Lows

Community

WunderPhotos

Upload Photos

1,817,200 photos uploaded!

WunderBlogs® & News

Nearby

Air Quality

  Air Quality AQ Index Pollutant
Not available.

Snow Depth

Station Depth Elevation

Earthquake Activity

City Distance Mag. Time & Date
Minimum magnitude displayed is 2.5.

Coastal Water Temperatures

Place Temperature

Stations

Nearby Weather Stations

Station Location Temp. Windchill Dew Point Humidity Wind Precip. Elev Updated Type